Asteria — WDE5489 — position and weather

sailwx.info

Track history (hours):
 
Tides and Currents Weather Stations Pressure Air Temp Water Temp Dewpoint Dewpoint Depression Visibility Wind Speed Wind Dir Waves Ship Positions

Asteria

Owner: Boston HarborCruises, Boston, MA. More information available from US FCC via Universal Licensing System and Coast Guard Vessel Documentation Center.

Last reported at 2016-Jul-29 23:33 UTC. Time now 2016-Jul-30 07:23 UTC.
Position N 42°21' W 071°03'.

Length 33 m; draft 2 m.

Type: High speed craft. MMSI: 367367470.

Date/timePositionNaut miles runAvg speedWind from/ knotsBaromVisibWave heightAir tempDewpointWater temp
2016-Jul-29 23:33N 42°21' W 071°03'8 8.2
2016-Jul-29 22:33N 42°15' W 070°55'8 8.3
2016-Jul-29 21:33N 42°21' W 071°03'0 0.1
2016-Jul-29 20:34N 42°21' W 071°03'3 2.7
2016-Jul-29 19:33N 42°19' W 071°01'2 1.7
2016-Jul-29 18:34N 42°20' W 070°59'3013.1
2016-Jul-29 16:17N 42°18' W 070°19'2128.9
2016-Jul-29 15:33N 42°19' W 070°47'1211.7
2016-Jul-29 14:34N 42°22' W 071°03'1 0.6
2016-Jul-29 13:34N 42°22' W 071°02'8 8.2
2016-Jul-29 12:33N 42°15' W 070°55'5 4.9
2016-Jul-29 11:33N 42°19' W 070°59'4 4.4
2016-Jul-29 10:33N 42°16' W 070°55'1 0.1
2016-Jul-29 00:05N 42°15' W 070°55'815.8
2016-Jul-28 23:33N 42°21' W 071°03'8 8.3
2016-Jul-28 22:33N 42°15' W 070°55'8 8.2
2016-Jul-28 21:33N 42°21' W 071°02'0 0.3
2016-Jul-28 20:33N 42°21' W 071°03'1 0.6
2016-Jul-28 19:33N 42°22' W 071°02'0 0.2
2016-Jul-28 18:34N 42°22' W 071°02'2727.5
2016-Jul-28 17:33N 42°15' W 070°26'8 6.9
2016-Jul-28 16:25N 42°15' W 070°15'2327.3
2016-Jul-28 15:33N 42°19' W 070°46'1312.6
2016-Jul-28 14:33N 42°22' W 071°03'1 0.6
2016-Jul-28 13:33N 42°22' W 071°02'8 8.3
2016-Jul-28 12:33N 42°15' W 070°55'5 4.9
2016-Jul-28 11:33N 42°19' W 070°59'4 4.3
2016-Jul-28 10:33N 42°16' W 070°55'1 0.8
2016-Jul-28 09:33N 42°15' W 070°55'0 0.0
2016-Jul-28 00:12N 42°15' W 070°55'813.1
2016-Jul-27 23:34N 42°21' W 071°03'8 8.2
2016-Jul-27 22:32N 42°15' W 070°55'8 8.5
2016-Jul-27 21:34N 42°21' W 071°03'0 0.2
2016-Jul-27 20:33N 42°21' W 071°03'0 0.5
2016-Jul-27 19:33N 42°22' W 071°02'1 0.5
2016-Jul-27 18:34N 42°22' W 071°03'2727.4
2016-Jul-27 17:33N 42°17' W 070°26'9 8.8
2016-Jul-27 16:33N 42°16' W 070°14'2626.2
2016-Jul-27 15:34N 42°19' W 070°50'10 9.8
2016-Jul-27 14:31N 42°22' W 071°03'1 0.9
2016-Jul-27 13:33N 42°22' W 071°03'9 9.2
2016-Jul-27 12:33N 42°15' W 070°55'5 5.4
2016-Jul-27 11:33N 42°20' W 070°60'3 0.2
2016-Jul-26 23:34N 42°21' W 071°03'8 8.3
2016-Jul-26 22:33N 42°15' W 070°55'8 8.4
2016-Jul-26 21:34N 42°21' W 071°03'0 0.2
2016-Jul-26 20:33N 42°21' W 071°03'1 0.6
2016-Jul-26 19:33N 42°22' W 071°02'1 0.7
2016-Jul-26 18:33N 42°22' W 071°03'1817.7
2016-Jul-26 17:34N 42°25' W 070°39'10 9.8
2016-Jul-26 16:33N 42°25' W 070°26'1818.2
2016-Jul-26 15:34N 42°23' W 070°51'9 9.2
2016-Jul-26 14:33N 42°22' W 071°03'0 0.2
2016-Jul-26 13:34N 42°22' W 071°03'8 8.4
2016-Jul-26 12:33N 42°15' W 070°55'5 5.4
2016-Jul-26 11:33N 42°20' W 070°60'5 4.9
2016-Jul-26 10:33N 42°16' W 070°55'1 0.8
2016-Jul-26 09:33N 42°15' W 070°55'8 0.8
2016-Jul-25 23:33N 42°21' W 071°03'8 8.3
2016-Jul-25 22:34N 42°15' W 070°55'8 8.3
2016-Jul-25 21:33N 42°21' W 071°03'0 0.2
2016-Jul-25 20:34N 42°21' W 071°03'0 0.5
2016-Jul-25 19:33N 42°22' W 071°02'1 0.6
2016-Jul-25 18:33N 42°22' W 071°03'2120.9
2016-Jul-25 17:33N 42°23' W 070°35'6 5.6
2016-Jul-25 16:33N 42°25' W 070°28'1515.4
2016-Jul-25 15:34N 42°22' W 070°48'1110.9
2016-Jul-25 14:33N 42°22' W 071°03'0 0.4
2016-Jul-25 13:33N 42°21' W 071°03'8 8.2
2016-Jul-25 12:33N 42°15' W 070°55'6 5.7
2016-Jul-25 11:33N 42°20' W 070°60'5 5.0
2016-Jul-25 10:33N 42°16' W 070°55'1 0.7
2016-Jul-25 09:34N 42°15' W 070°55'5 0.5
2016-Jul-24 23:34N 42°19' W 070°59'4 3.6
2016-Jul-24 22:34N 42°22' W 071°03'1716.6
2016-Jul-24 21:34N 42°19' W 070°41'13 6.4
2016-Jul-24 19:33N 42°23' W 070°24'1717.1
2016-Jul-24 18:33N 42°22' W 070°47'1211.5
2016-Jul-24 17:33N 42°22' W 071°03'1717.5
2016-Jul-24 16:34N 42°22' W 070°39'1110.7
2016-Jul-24 15:32N 42°24' W 070°25'1817.9
2016-Jul-24 14:33N 42°22' W 070°48'1110.2
2016-Jul-24 13:29N 42°22' W 071°03'1 0.7
2016-Jul-24 12:32N 42°22' W 071°02'1 0.0
2016-Jul-23 23:33N 42°22' W 071°03'5 4.8
2016-Jul-23 22:34N 42°20' W 070°57'2323.3
2016-Jul-23 21:33N 42°25' W 070°26'2 1.7
2016-Jul-23 20:33N 42°24' W 070°24'1818.0
2016-Jul-23 19:33N 42°21' W 070°48'1111.0
2016-Jul-23 18:33N 42°22' W 071°03'1514.8
2016-Jul-23 17:33N 42°22' W 070°43'1313.2
2016-Jul-23 16:33N 42°25' W 070°26'1717.2
2016-Jul-23 15:34N 42°22' W 070°49'1110.7
2016-Jul-23 14:33N 42°22' W 071°03'1 1.3
2016-Jul-23 13:33N 42°23' W 071°03'2 1.8
2016-Jul-23 12:34N 42°21' W 071°02'1 0.1
2016-Jul-22 23:34N 42°21' W 071°03'8 8.2
2016-Jul-22 22:33N 42°15' W 070°55'8 7.9
2016-Jul-22 21:33N 42°21' W 071°02'1 0.6
2016-Jul-22 20:33N 42°21' W 071°03'1 0.6
2016-Jul-22 19:33N 42°22' W 071°02'1 0.6
2016-Jul-22 18:33N 42°22' W 071°03'1716.6
2016-Jul-22 17:33N 42°21' W 070°41'11 9.7
2016-Jul-22 16:27N 42°24' W 070°27'1618.2
2016-Jul-22 15:34N 42°21' W 070°49'1010.2
2016-Jul-22 14:34N 42°22' W 071°03'0 0.3
2016-Jul-22 13:33N 42°22' W 071°02'8 8.2
2016-Jul-22 12:33N 42°15' W 070°55'6 5.6
2016-Jul-22 11:33N 42°20' W 070°60'5 4.6
2016-Jul-22 10:26N 42°15' W 070°58'8 0.7
2016-Jul-21 23:34N 42°21' W 071°03'8 8.3
2016-Jul-21 22:33N 42°15' W 070°55'8 8.3
2016-Jul-21 21:33N 42°21' W 071°03'0 0.2
2016-Jul-21 20:33N 42°21' W 071°03'5 4.8
2016-Jul-21 19:34N 42°20' W 070°56'2726.9
2016-Jul-21 18:33N 42°21' W 070°20'3 3.2
2016-Jul-21 17:33N 42°21' W 070°24'2727.2
2016-Jul-21 16:34N 42°21' W 071°01'2 1.7
2016-Jul-21 15:33N 42°21' W 071°03'8 8.4
2016-Jul-21 14:33N 42°15' W 070°55'8 8.2
2016-Jul-21 13:33N 42°22' W 071°02'8 8.3
2016-Jul-21 12:33N 42°15' W 070°55'5 5.4
2016-Jul-21 11:33N 42°19' W 070°60'4 3.8
2016-Jul-21 10:33N 42°17' W 070°56'2 1.6
2016-Jul-21 09:33N 42°15' W 070°55'8 0.8
2016-Jul-20 23:33N 42°21' W 071°03'8 8.3
2016-Jul-20 22:34N 42°15' W 070°55'8 8.2
2016-Jul-20 21:33N 42°21' W 071°03'0 0.1
2016-Jul-20 20:33N 42°21' W 071°03'0 0.5
2016-Jul-20 19:33N 42°22' W 071°02'1 0.6
2016-Jul-20 18:33N 42°22' W 071°03'2020.1
2016-Jul-20 17:34N 42°23' W 070°36'8 7.7
2016-Jul-20 16:33N 42°26' W 070°26'1716.4
2016-Jul-20 15:33N 42°21' W 070°48'1111.3
2016-Jul-20 14:33N 42°22' W 071°03'1 0.6
2016-Jul-20 13:34N 42°22' W 071°02'8 8.1
2016-Jul-20 12:33N 42°15' W 070°55'5 4.7
2016-Jul-20 11:33N 42°19' W 070°59'4 4.0
2016-Jul-20 10:28N 42°15' W 070°58'2 0.2
2016-Jul-20 00:05N 42°15' W 070°55'815.7
2016-Jul-19 23:33N 42°21' W 071°03'  
Track history (hours):
 
Tides and Currents Weather Stations Pressure Air Temp Water Temp Dewpoint Dewpoint Depression Visibility Wind Speed Wind Dir Waves Ship Positions

Asteria

Owner: Boston HarborCruises, Boston, MA. More information available from US FCC via Universal Licensing System and Coast Guard Vessel Documentation Center.

Last reported at 2016-Jul-29 23:33 UTC. Time now 2016-Jul-30 07:23 UTC.
Position N 42°21' W 071°03'.

Length 33 m; draft 2 m.

Type: High speed craft. MMSI: 367367470.

Date/timePositionNaut miles runAvg speedWind from/ knotsBaromVisibWave heightAir tempDewpointWater temp
2016-Jul-29 23:33N 42°21' W 071°03'8 8.2
2016-Jul-29 22:33N 42°15' W 070°55'8 8.3
2016-Jul-29 21:33N 42°21' W 071°03'0 0.1
2016-Jul-29 20:34N 42°21' W 071°03'3 2.7
2016-Jul-29 19:33N 42°19' W 071°01'2 1.7
2016-Jul-29 18:34N 42°20' W 070°59'3013.1
2016-Jul-29 16:17N 42°18' W 070°19'2128.9
2016-Jul-29 15:33N 42°19' W 070°47'1211.7
2016-Jul-29 14:34N 42°22' W 071°03'1 0.6
2016-Jul-29 13:34N 42°22' W 071°02'8 8.2
2016-Jul-29 12:33N 42°15' W 070°55'5 4.9
2016-Jul-29 11:33N 42°19' W 070°59'4 4.4
2016-Jul-29 10:33N 42°16' W 070°55'1 0.1
2016-Jul-29 00:05N 42°15' W 070°55'815.8
2016-Jul-28 23:33N 42°21' W 071°03'8 8.3
2016-Jul-28 22:33N 42°15' W 070°55'8 8.2
2016-Jul-28 21:33N 42°21' W 071°02'0 0.3
2016-Jul-28 20:33N 42°21' W 071°03'1 0.6
2016-Jul-28 19:33N 42°22' W 071°02'0 0.2
2016-Jul-28 18:34N 42°22' W 071°02'2727.5
2016-Jul-28 17:33N 42°15' W 070°26'8 6.9
2016-Jul-28 16:25N 42°15' W 070°15'2327.3
2016-Jul-28 15:33N 42°19' W 070°46'1312.6
2016-Jul-28 14:33N 42°22' W 071°03'1 0.6
2016-Jul-28 13:33N 42°22' W 071°02'8 8.3
2016-Jul-28 12:33N 42°15' W 070°55'5 4.9
2016-Jul-28 11:33N 42°19' W 070°59'4 4.3
2016-Jul-28 10:33N 42°16' W 070°55'1 0.8
2016-Jul-28 09:33N 42°15' W 070°55'0 0.0
2016-Jul-28 00:12N 42°15' W 070°55'813.1
2016-Jul-27 23:34N 42°21' W 071°03'8 8.2
2016-Jul-27 22:32N 42°15' W 070°55'8 8.5
2016-Jul-27 21:34N 42°21' W 071°03'0 0.2
2016-Jul-27 20:33N 42°21' W 071°03'0 0.5
2016-Jul-27 19:33N 42°22' W 071°02'1 0.5
2016-Jul-27 18:34N 42°22' W 071°03'2727.4
2016-Jul-27 17:33N 42°17' W 070°26'9 8.8
2016-Jul-27 16:33N 42°16' W 070°14'2626.2
2016-Jul-27 15:34N 42°19' W 070°50'10 9.8
2016-Jul-27 14:31N 42°22' W 071°03'1 0.9
2016-Jul-27 13:33N 42°22' W 071°03'9 9.2
2016-Jul-27 12:33N 42°15' W 070°55'5 5.4
2016-Jul-27 11:33N 42°20' W 070°60'3 0.2
2016-Jul-26 23:34N 42°21' W 071°03'8 8.3
2016-Jul-26 22:33N 42°15' W 070°55'8 8.4
2016-Jul-26 21:34N 42°21' W 071°03'0 0.2
2016-Jul-26 20:33N 42°21' W 071°03'1 0.6
2016-Jul-26 19:33N 42°22' W 071°02'1 0.7
2016-Jul-26 18:33N 42°22' W 071°03'1817.7
2016-Jul-26 17:34N 42°25' W 070°39'10 9.8
2016-Jul-26 16:33N 42°25' W 070°26'1818.2
2016-Jul-26 15:34N 42°23' W 070°51'9 9.2
2016-Jul-26 14:33N 42°22' W 071°03'0 0.2
2016-Jul-26 13:34N 42°22' W 071°03'8 8.4
2016-Jul-26 12:33N 42°15' W 070°55'5 5.4
2016-Jul-26 11:33N 42°20' W 070°60'5 4.9
2016-Jul-26 10:33N 42°16' W 070°55'1 0.8
2016-Jul-26 09:33N 42°15' W 070°55'8 0.8
2016-Jul-25 23:33N 42°21' W 071°03'8 8.3
2016-Jul-25 22:34N 42°15' W 070°55'8 8.3
2016-Jul-25 21:33N 42°21' W 071°03'0 0.2
2016-Jul-25 20:34N 42°21' W 071°03'0 0.5
2016-Jul-25 19:33N 42°22' W 071°02'1 0.6
2016-Jul-25 18:33N 42°22' W 071°03'2120.9
2016-Jul-25 17:33N 42°23' W 070°35'6 5.6
2016-Jul-25 16:33N 42°25' W 070°28'1515.4
2016-Jul-25 15:34N 42°22' W 070°48'1110.9
2016-Jul-25 14:33N 42°22' W 071°03'0 0.4
2016-Jul-25 13:33N 42°21' W 071°03'8 8.2
2016-Jul-25 12:33N 42°15' W 070°55'6 5.7
2016-Jul-25 11:33N 42°20' W 070°60'5 5.0
2016-Jul-25 10:33N 42°16' W 070°55'1 0.7
2016-Jul-25 09:34N 42°15' W 070°55'5 0.5
2016-Jul-24 23:34N 42°19' W 070°59'4 3.6
2016-Jul-24 22:34N 42°22' W 071°03'1716.6
2016-Jul-24 21:34N 42°19' W 070°41'13 6.4
2016-Jul-24 19:33N 42°23' W 070°24'1717.1
2016-Jul-24 18:33N 42°22' W 070°47'1211.5
2016-Jul-24 17:33N 42°22' W 071°03'1717.5
2016-Jul-24 16:34N 42°22' W 070°39'1110.7
2016-Jul-24 15:32N 42°24' W 070°25'1817.9
2016-Jul-24 14:33N 42°22' W 070°48'1110.2
2016-Jul-24 13:29N 42°22' W 071°03'1 0.7
2016-Jul-24 12:32N 42°22' W 071°02'1 0.0
2016-Jul-23 23:33N 42°22' W 071°03'5 4.8
2016-Jul-23 22:34N 42°20' W 070°57'2323.3
2016-Jul-23 21:33N 42°25' W 070°26'2 1.7
2016-Jul-23 20:33N 42°24' W 070°24'1818.0
2016-Jul-23 19:33N 42°21' W 070°48'1111.0
2016-Jul-23 18:33N 42°22' W 071°03'1514.8
2016-Jul-23 17:33N 42°22' W 070°43'1313.2
2016-Jul-23 16:33N 42°25' W 070°26'1717.2
2016-Jul-23 15:34N 42°22' W 070°49'1110.7
2016-Jul-23 14:33N 42°22' W 071°03'1 1.3
2016-Jul-23 13:33N 42°23' W 071°03'2 1.8
2016-Jul-23 12:34N 42°21' W 071°02'1 0.1
2016-Jul-22 23:34N 42°21' W 071°03'8 8.2
2016-Jul-22 22:33N 42°15' W 070°55'8 7.9
2016-Jul-22 21:33N 42°21' W 071°02'1 0.6
2016-Jul-22 20:33N 42°21' W 071°03'1 0.6
2016-Jul-22 19:33N 42°22' W 071°02'1 0.6
2016-Jul-22 18:33N 42°22' W 071°03'1716.6
2016-Jul-22 17:33N 42°21' W 070°41'11 9.7
2016-Jul-22 16:27N 42°24' W 070°27'1618.2
2016-Jul-22 15:34N 42°21' W 070°49'1010.2
2016-Jul-22 14:34N 42°22' W 071°03'0 0.3
2016-Jul-22 13:33N 42°22' W 071°02'8 8.2
2016-Jul-22 12:33N 42°15' W 070°55'6 5.6
2016-Jul-22 11:33N 42°20' W 070°60'5 4.6
2016-Jul-22 10:26N 42°15' W 070°58'8 0.7
2016-Jul-21 23:34N 42°21' W 071°03'8 8.3
2016-Jul-21 22:33N 42°15' W 070°55'8 8.3
2016-Jul-21 21:33N 42°21' W 071°03'0 0.2
2016-Jul-21 20:33N 42°21' W 071°03'5 4.8
2016-Jul-21 19:34N 42°20' W 070°56'2726.9
2016-Jul-21 18:33N 42°21' W 070°20'3 3.2
2016-Jul-21 17:33N 42°21' W 070°24'2727.2
2016-Jul-21 16:34N 42°21' W 071°01'2 1.7
2016-Jul-21 15:33N 42°21' W 071°03'8 8.4
2016-Jul-21 14:33N 42°15' W 070°55'8 8.2
2016-Jul-21 13:33N 42°22' W 071°02'8 8.3
2016-Jul-21 12:33N 42°15' W 070°55'5 5.4
2016-Jul-21 11:33N 42°19' W 070°60'4 3.8
2016-Jul-21 10:33N 42°17' W 070°56'2 1.6
2016-Jul-21 09:33N 42°15' W 070°55'8 0.8
2016-Jul-20 23:33N 42°21' W 071°03'8 8.3
2016-Jul-20 22:34N 42°15' W 070°55'8 8.2
2016-Jul-20 21:33N 42°21' W 071°03'0 0.1
2016-Jul-20 20:33N 42°21' W 071°03'0 0.5
2016-Jul-20 19:33N 42°22' W 071°02'1 0.6
2016-Jul-20 18:33N 42°22' W 071°03'2020.1
2016-Jul-20 17:34N 42°23' W 070°36'8 7.7
2016-Jul-20 16:33N 42°26' W 070°26'1716.4
2016-Jul-20 15:33N 42°21' W 070°48'1111.3
2016-Jul-20 14:33N 42°22' W 071°03'1 0.6
2016-Jul-20 13:34N 42°22' W 071°02'8 8.1
2016-Jul-20 12:33N 42°15' W 070°55'5 4.7
2016-Jul-20 11:33N 42°19' W 070°59'4 4.0
2016-Jul-20 10:28N 42°15' W 070°58'2 0.2
2016-Jul-20 00:05N 42°15' W 070°55'815.7
2016-Jul-19 23:33N 42°21' W 071°03'  

Dump ship's entire track history